sensor_id;sensor_type;location;lat;lon;timestamp;temperature;humidity
52471;DHT22;38382;53.160;7.026;2023-07-20T00:02:00;15.60;99.90
52471;DHT22;38382;53.160;7.026;2023-07-20T00:04:28;15.60;99.90
52471;DHT22;38382;53.160;7.026;2023-07-20T00:06:53;15.50;99.90
52471;DHT22;38382;53.160;7.026;2023-07-20T00:09:19;15.50;99.90
52471;DHT22;38382;53.160;7.026;2023-07-20T00:11:51;15.60;99.90
52471;DHT22;38382;53.160;7.026;2023-07-20T00:14:17;15.50;99.90
52471;DHT22;38382;53.160;7.026;2023-07-20T00:16:44;15.50;99.90
52471;DHT22;38382;53.160;7.026;2023-07-20T00:19:15;15.60;99.90
52471;DHT22;38382;53.160;7.026;2023-07-20T00:21:41;15.50;99.90
52471;DHT22;38382;53.160;7.026;2023-07-20T00:24:08;15.50;99.90
52471;DHT22;38382;53.160;7.026;2023-07-20T00:26:34;15.60;99.90
52471;DHT22;38382;53.160;7.026;2023-07-20T00:28:59;15.50;99.90
52471;DHT22;38382;53.160;7.026;2023-07-20T00:31:25;15.50;99.90
52471;DHT22;38382;53.160;7.026;2023-07-20T00:33:52;15.50;99.90
52471;DHT22;38382;53.160;7.026;2023-07-20T00:36:18;15.50;99.90
52471;DHT22;38382;53.160;7.026;2023-07-20T00:38:43;15.40;99.90
52471;DHT22;38382;53.160;7.026;2023-07-20T00:41:09;15.40;99.90
52471;DHT22;38382;53.160;7.026;2023-07-20T00:43:35;15.40;99.90
52471;DHT22;38382;53.160;7.026;2023-07-20T00:46:00;15.40;99.90
52471;DHT22;38382;53.160;7.026;2023-07-20T00:48:29;15.40;99.90
52471;DHT22;38382;53.160;7.026;2023-07-20T00:50:55;15.40;99.90
52471;DHT22;38382;53.160;7.026;2023-07-20T00:53:21;15.40;99.90
52471;DHT22;38382;53.160;7.026;2023-07-20T00:55:47;15.40;99.90
52471;DHT22;38382;53.160;7.026;2023-07-20T00:58:14;15.40;99.90
52471;DHT22;38382;53.160;7.026;2023-07-20T01:00:39;15.40;99.90
52471;DHT22;38382;53.160;7.026;2023-07-20T01:03:05;15.40;99.90
52471;DHT22;38382;53.160;7.026;2023-07-20T01:06:29;15.40;99.90
52471;DHT22;38382;53.160;7.026;2023-07-20T01:14:07;15.30;99.90
52471;DHT22;38382;53.160;7.026;2023-07-20T01:16:33;15.20;99.90
52471;DHT22;38382;53.160;7.026;2023-07-20T01:18:59;15.20;99.90
52471;DHT22;38382;53.160;7.026;2023-07-20T01:28:02;15.10;99.90
52471;DHT22;38382;53.160;7.026;2023-07-20T01:30:08;15.10;99.90
52471;DHT22;38382;53.160;7.026;2023-07-20T01:32:40;15.10;99.90
52471;DHT22;38382;53.160;7.026;2023-07-20T01:35:08;15.10;99.90
52471;DHT22;38382;53.160;7.026;2023-07-20T01:37:35;15.10;99.90
52471;DHT22;38382;53.160;7.026;2023-07-20T01:40:02;15.10;99.90
52471;DHT22;38382;53.160;7.026;2023-07-20T01:42:29;15.10;99.90
52471;DHT22;38382;53.160;7.026;2023-07-20T01:44:55;15.00;99.90
52471;DHT22;38382;53.160;7.026;2023-07-20T01:47:20;15.00;99.90
52471;DHT22;38382;53.160;7.026;2023-07-20T01:49:46;14.90;99.90
52471;DHT22;38382;53.160;7.026;2023-07-20T01:52:12;14.90;99.90
52471;DHT22;38382;53.160;7.026;2023-07-20T01:54:38;14.90;99.90
52471;DHT22;38382;53.160;7.026;2023-07-20T01:57:03;14.80;99.90
52471;DHT22;38382;53.160;7.026;2023-07-20T01:59:29;14.80;99.90
52471;DHT22;38382;53.160;7.026;2023-07-20T02:01:55;14.70;99.90
52471;DHT22;38382;53.160;7.026;2023-07-20T02:04:21;14.70;99.90
52471;DHT22;38382;53.160;7.026;2023-07-20T02:06:46;14.60;99.90
52471;DHT22;38382;53.160;7.026;2023-07-20T02:09:12;14.60;99.90
52471;DHT22;38382;53.160;7.026;2023-07-20T02:11:38;14.60;99.90
52471;DHT22;38382;53.160;7.026;2023-07-20T02:14:03;14.50;99.90
52471;DHT22;38382;53.160;7.026;2023-07-20T02:16:29;14.50;99.90
52471;DHT22;38382;53.160;7.026;2023-07-20T02:18:55;14.50;99.90
52471;DHT22;38382;53.160;7.026;2023-07-20T02:21:22;14.50;99.90
52471;DHT22;38382;53.160;7.026;2023-07-20T02:23:48;14.40;99.90
52471;DHT22;38382;53.160;7.026;2023-07-20T02:26:14;14.30;99.90
52471;DHT22;38382;53.160;7.026;2023-07-20T02:28:40;14.30;99.90
52471;DHT22;38382;53.160;7.026;2023-07-20T02:31:07;14.30;99.90
52471;DHT22;38382;53.160;7.026;2023-07-20T02:33:32;14.20;99.90
52471;DHT22;38382;53.160;7.026;2023-07-20T02:35:58;14.20;99.90
52471;DHT22;38382;53.160;7.026;2023-07-20T02:38:24;14.20;99.90
52471;DHT22;38382;53.160;7.026;2023-07-20T02:40:50;14.10;99.90
52471;DHT22;38382;53.160;7.026;2023-07-20T02:43:17;14.00;99.90
52471;DHT22;38382;53.160;7.026;2023-07-20T02:45:43;14.00;99.90
52471;DHT22;38382;53.160;7.026;2023-07-20T02:48:09;13.90;99.90
52471;DHT22;38382;53.160;7.026;2023-07-20T02:50:35;13.80;99.90
52471;DHT22;38382;53.160;7.026;2023-07-20T02:53:01;13.90;99.90
52471;DHT22;38382;53.160;7.026;2023-07-20T02:55:27;13.80;99.90
52471;DHT22;38382;53.160;7.026;2023-07-20T02:57:52;13.80;99.90
52471;DHT22;38382;53.160;7.026;2023-07-20T03:00:18;13.70;99.90
52471;DHT22;38382;53.160;7.026;2023-07-20T03:02:46;13.70;99.90
52471;DHT22;38382;53.160;7.026;2023-07-20T03:05:14;13.70;99.90
52471;DHT22;38382;53.160;7.026;2023-07-20T03:07:42;13.70;99.90
52471;DHT22;38382;53.160;7.026;2023-07-20T03:10:09;13.60;99.90
52471;DHT22;38382;53.160;7.026;2023-07-20T03:12:35;13.60;99.90
52471;DHT22;38382;53.160;7.026;2023-07-20T03:15:02;13.60;99.90
52471;DHT22;38382;53.160;7.026;2023-07-20T03:17:28;13.50;99.90
52471;DHT22;38382;53.160;7.026;2023-07-20T03:19:54;13.60;99.90
52471;DHT22;38382;53.160;7.026;2023-07-20T03:22:19;13.50;99.90
52471;DHT22;38382;53.160;7.026;2023-07-20T03:24:47;13.50;99.90
52471;DHT22;38382;53.160;7.026;2023-07-20T03:27:12;13.40;99.90
52471;DHT22;38382;53.160;7.026;2023-07-20T03:29:38;13.40;99.90
52471;DHT22;38382;53.160;7.026;2023-07-20T03:32:04;13.40;99.90
52471;DHT22;38382;53.160;7.026;2023-07-20T03:34:30;13.30;99.90
52471;DHT22;38382;53.160;7.026;2023-07-20T03:36:56;13.30;99.90
52471;DHT22;38382;53.160;7.026;2023-07-20T03:39:22;13.30;99.90
52471;DHT22;38382;53.160;7.026;2023-07-20T03:41:48;13.20;99.90
52471;DHT22;38382;53.160;7.026;2023-07-20T03:44:14;13.20;99.90
52471;DHT22;38382;53.160;7.026;2023-07-20T03:46:39;13.20;99.90
52471;DHT22;38382;53.160;7.026;2023-07-20T03:49:05;13.10;99.90
52471;DHT22;38382;53.160;7.026;2023-07-20T03:51:32;13.20;99.90
52471;DHT22;38382;53.160;7.026;2023-07-20T03:53:58;13.20;99.90
52471;DHT22;38382;53.160;7.026;2023-07-20T03:56:24;13.10;99.90
52471;DHT22;38382;53.160;7.026;2023-07-20T03:58:50;13.10;99.90
52471;DHT22;38382;53.160;7.026;2023-07-20T04:01:16;13.10;99.90
52471;DHT22;38382;53.160;7.026;2023-07-20T04:03:42;13.20;99.90
52471;DHT22;38382;53.160;7.026;2023-07-20T04:06:08;13.20;99.90
52471;DHT22;38382;53.160;7.026;2023-07-20T04:08:35;13.10;99.90
52471;DHT22;38382;53.160;7.026;2023-07-20T04:11:02;13.20;99.90
52471;DHT22;38382;53.160;7.026;2023-07-20T04:13:27;13.10;99.90
52471;DHT22;38382;53.160;7.026;2023-07-20T04:15:54;13.10;99.90
52471;DHT22;38382;53.160;7.026;2023-07-20T04:18:20;13.10;99.90
52471;DHT22;38382;53.160;7.026;2023-07-20T04:20:46;13.10;99.90
52471;DHT22;38382;53.160;7.026;2023-07-20T04:23:12;13.10;99.90
52471;DHT22;38382;53.160;7.026;2023-07-20T04:25:41;13.00;99.90
52471;DHT22;38382;53.160;7.026;2023-07-20T04:28:07;13.10;99.90
52471;DHT22;38382;53.160;7.026;2023-07-20T04:30:35;13.00;99.90
52471;DHT22;38382;53.160;7.026;2023-07-20T04:33:01;13.10;99.90
52471;DHT22;38382;53.160;7.026;2023-07-20T04:35:47;13.10;99.90
52471;DHT22;38382;53.160;7.026;2023-07-20T04:38:14;13.10;99.90
52471;DHT22;38382;53.160;7.026;2023-07-20T04:40:42;13.20;99.90
52471;DHT22;38382;53.160;7.026;2023-07-20T04:43:08;13.20;99.90
52471;DHT22;38382;53.160;7.026;2023-07-20T04:45:34;13.20;99.90
52471;DHT22;38382;53.160;7.026;2023-07-20T04:48:00;13.10;99.90
52471;DHT22;38382;53.160;7.026;2023-07-20T04:50:25;13.20;99.90
52471;DHT22;38382;53.160;7.026;2023-07-20T04:52:52;13.10;99.90
52471;DHT22;38382;53.160;7.026;2023-07-20T04:55:18;13.20;99.90
52471;DHT22;38382;53.160;7.026;2023-07-20T04:57:44;13.20;99.90
52471;DHT22;38382;53.160;7.026;2023-07-20T05:00:10;13.20;99.90
52471;DHT22;38382;53.160;7.026;2023-07-20T05:02:37;13.30;99.90
52471;DHT22;38382;53.160;7.026;2023-07-20T05:05:03;13.40;99.90
52471;DHT22;38382;53.160;7.026;2023-07-20T05:07:31;13.40;99.90
52471;DHT22;38382;53.160;7.026;2023-07-20T05:09:57;13.40;99.90
52471;DHT22;38382;53.160;7.026;2023-07-20T05:12:23;13.40;99.90
52471;DHT22;38382;53.160;7.026;2023-07-20T05:14:49;13.40;99.90
52471;DHT22;38382;53.160;7.026;2023-07-20T05:17:14;13.40;99.90
52471;DHT22;38382;53.160;7.026;2023-07-20T05:19:40;13.40;99.90
52471;DHT22;38382;53.160;7.026;2023-07-20T05:22:06;13.40;99.90
52471;DHT22;38382;53.160;7.026;2023-07-20T05:24:32;13.40;99.90
52471;DHT22;38382;53.160;7.026;2023-07-20T05:26:58;13.50;99.90
52471;DHT22;38382;53.160;7.026;2023-07-20T05:29:24;13.50;99.90
52471;DHT22;38382;53.160;7.026;2023-07-20T05:31:50;13.50;99.90
52471;DHT22;38382;53.160;7.026;2023-07-20T05:34:16;13.50;99.90
52471;DHT22;38382;53.160;7.026;2023-07-20T05:36:42;13.60;99.90
52471;DHT22;38382;53.160;7.026;2023-07-20T05:39:07;13.70;99.90
52471;DHT22;38382;53.160;7.026;2023-07-20T05:41:33;13.70;99.90
52471;DHT22;38382;53.160;7.026;2023-07-20T05:43:59;13.80;99.90
52471;DHT22;38382;53.160;7.026;2023-07-20T05:46:25;13.80;99.90
52471;DHT22;38382;53.160;7.026;2023-07-20T05:48:51;13.90;99.90
52471;DHT22;38382;53.160;7.026;2023-07-20T05:51:16;14.00;99.90
52471;DHT22;38382;53.160;7.026;2023-07-20T05:53:42;14.00;99.90
52471;DHT22;38382;53.160;7.026;2023-07-20T05:56:08;14.00;99.90
52471;DHT22;38382;53.160;7.026;2023-07-20T05:58:36;14.10;99.90
52471;DHT22;38382;53.160;7.026;2023-07-20T06:01:03;14.10;99.90
52471;DHT22;38382;53.160;7.026;2023-07-20T06:03:32;14.20;99.90
52471;DHT22;38382;53.160;7.026;2023-07-20T06:06:00;14.20;99.90
52471;DHT22;38382;53.160;7.026;2023-07-20T06:08:30;14.20;99.90
52471;DHT22;38382;53.160;7.026;2023-07-20T06:10:56;14.30;99.90
52471;DHT22;38382;53.160;7.026;2023-07-20T06:13:21;14.30;99.90
52471;DHT22;38382;53.160;7.026;2023-07-20T06:15:47;14.40;99.90
52471;DHT22;38382;53.160;7.026;2023-07-20T06:18:13;14.40;99.90
52471;DHT22;38382;53.160;7.026;2023-07-20T06:20:39;14.50;99.90
52471;DHT22;38382;53.160;7.026;2023-07-20T06:23:05;14.50;99.90
52471;DHT22;38382;53.160;7.026;2023-07-20T06:25:31;14.50;99.90
52471;DHT22;38382;53.160;7.026;2023-07-20T06:27:56;14.50;99.90
52471;DHT22;38382;53.160;7.026;2023-07-20T06:30:22;14.60;99.90
52471;DHT22;38382;53.160;7.026;2023-07-20T06:32:48;14.60;99.90
52471;DHT22;38382;53.160;7.026;2023-07-20T06:35:15;14.70;99.90
52471;DHT22;38382;53.160;7.026;2023-07-20T06:37:41;14.80;99.90
52471;DHT22;38382;53.160;7.026;2023-07-20T06:40:07;14.90;99.90
52471;DHT22;38382;53.160;7.026;2023-07-20T06:42:35;14.90;99.90
52471;DHT22;38382;53.160;7.026;2023-07-20T06:45:01;15.00;99.90
52471;DHT22;38382;53.160;7.026;2023-07-20T06:47:26;15.00;99.90
52471;DHT22;38382;53.160;7.026;2023-07-20T06:49:52;15.10;99.90
52471;DHT22;38382;53.160;7.026;2023-07-20T06:52:18;15.20;99.90
52471;DHT22;38382;53.160;7.026;2023-07-20T06:54:44;15.20;99.90
52471;DHT22;38382;53.160;7.026;2023-07-20T06:57:10;15.30;99.90
52471;DHT22;38382;53.160;7.026;2023-07-20T06:59:35;15.30;99.90
52471;DHT22;38382;53.160;7.026;2023-07-20T07:02:01;15.30;99.90
52471;DHT22;38382;53.160;7.026;2023-07-20T07:04:27;15.40;99.90
52471;DHT22;38382;53.160;7.026;2023-07-20T07:06:53;15.50;99.90
52471;DHT22;38382;53.160;7.026;2023-07-20T07:09:19;15.50;99.90
52471;DHT22;38382;53.160;7.026;2023-07-20T07:11:46;15.60;99.90
52471;DHT22;38382;53.160;7.026;2023-07-20T07:14:12;15.60;99.90
52471;DHT22;38382;53.160;7.026;2023-07-20T07:16:38;15.70;99.90
52471;DHT22;38382;53.160;7.026;2023-07-20T07:19:04;15.80;99.90
52471;DHT22;38382;53.160;7.026;2023-07-20T07:21:31;15.90;99.90
52471;DHT22;38382;53.160;7.026;2023-07-20T07:23:57;16.00;99.90
52471;DHT22;38382;53.160;7.026;2023-07-20T07:26:23;16.00;99.90
52471;DHT22;38382;53.160;7.026;2023-07-20T07:28:49;16.10;99.90
52471;DHT22;38382;53.160;7.026;2023-07-20T07:31:15;16.20;99.90
52471;DHT22;38382;53.160;7.026;2023-07-20T07:33:41;16.30;99.90
52471;DHT22;38382;53.160;7.026;2023-07-20T07:36:07;16.40;99.90
52471;DHT22;38382;53.160;7.026;2023-07-20T07:38:33;16.50;99.90
52471;DHT22;38382;53.160;7.026;2023-07-20T07:40:59;16.60;99.90
52471;DHT22;38382;53.160;7.026;2023-07-20T07:43:24;16.80;99.90
52471;DHT22;38382;53.160;7.026;2023-07-20T07:45:53;17.10;99.90
52471;DHT22;38382;53.160;7.026;2023-07-20T07:48:19;17.40;99.90
52471;DHT22;38382;53.160;7.026;2023-07-20T07:50:46;17.50;99.90
52471;DHT22;38382;53.160;7.026;2023-07-20T07:53:12;17.40;99.90
52471;DHT22;38382;53.160;7.026;2023-07-20T07:55:38;17.30;99.90
52471;DHT22;38382;53.160;7.026;2023-07-20T07:58:04;17.30;99.90
52471;DHT22;38382;53.160;7.026;2023-07-20T08:00:30;17.40;99.90
52471;DHT22;38382;53.160;7.026;2023-07-20T08:02:56;17.40;99.90
52471;DHT22;38382;53.160;7.026;2023-07-20T08:05:21;17.50;99.90
52471;DHT22;38382;53.160;7.026;2023-07-20T08:07:47;17.40;99.90
52471;DHT22;38382;53.160;7.026;2023-07-20T08:10:13;18.00;99.90
52471;DHT22;38382;53.160;7.026;2023-07-20T08:12:39;17.20;99.90
52471;DHT22;38382;53.160;7.026;2023-07-20T08:15:05;17.10;99.90
52471;DHT22;38382;53.160;7.026;2023-07-20T08:17:31;17.00;99.90
52471;DHT22;38382;53.160;7.026;2023-07-20T08:19:56;17.10;99.90
52471;DHT22;38382;53.160;7.026;2023-07-20T08:22:22;17.30;99.90
52471;DHT22;38382;53.160;7.026;2023-07-20T08:24:48;17.60;99.90
52471;DHT22;38382;53.160;7.026;2023-07-20T08:27:14;17.90;99.90
52471;DHT22;38382;53.160;7.026;2023-07-20T08:29:40;18.30;99.90
52471;DHT22;38382;53.160;7.026;2023-07-20T08:32:06;18.70;99.90
52471;DHT22;38382;53.160;7.026;2023-07-20T08:34:32;19.00;99.90
52471;DHT22;38382;53.160;7.026;2023-07-20T08:36:58;19.30;99.90
52471;DHT22;38382;53.160;7.026;2023-07-20T08:39:24;19.70;99.90
52471;DHT22;38382;53.160;7.026;2023-07-20T08:41:50;20.00;99.90
52471;DHT22;38382;53.160;7.026;2023-07-20T08:44:19;20.30;99.90
52471;DHT22;38382;53.160;7.026;2023-07-20T08:46:45;20.50;99.90
52471;DHT22;38382;53.160;7.026;2023-07-20T08:49:13;20.80;99.90
52471;DHT22;38382;53.160;7.026;2023-07-20T08:51:40;21.10;99.90
52471;DHT22;38382;53.160;7.026;2023-07-20T08:54:08;21.50;99.90
52471;DHT22;38382;53.160;7.026;2023-07-20T08:56:36;21.90;99.90
52471;DHT22;38382;53.160;7.026;2023-07-20T08:59:02;21.90;99.90
52471;DHT22;38382;53.160;7.026;2023-07-20T09:01:28;21.70;99.90
52471;DHT22;38382;53.160;7.026;2023-07-20T09:03:56;21.10;99.90
52471;DHT22;38382;53.160;7.026;2023-07-20T09:06:22;20.60;99.90
52471;DHT22;38382;53.160;7.026;2023-07-20T09:08:48;20.10;99.90
52471;DHT22;38382;53.160;7.026;2023-07-20T09:11:14;19.80;99.90
52471;DHT22;38382;53.160;7.026;2023-07-20T09:13:40;20.10;99.90
52471;DHT22;38382;53.160;7.026;2023-07-20T09:16:06;20.60;99.90
52471;DHT22;38382;53.160;7.026;2023-07-20T09:18:32;21.10;99.90
52471;DHT22;38382;53.160;7.026;2023-07-20T09:21:04;21.30;99.90
52471;DHT22;38382;53.160;7.026;2023-07-20T09:23:35;21.30;99.90
52471;DHT22;38382;53.160;7.026;2023-07-20T09:26:09;21.00;99.90
52471;DHT22;38382;53.160;7.026;2023-07-20T09:28:43;20.70;99.90
52471;DHT22;38382;53.160;7.026;2023-07-20T09:31:20;20.70;99.90
52471;DHT22;38382;53.160;7.026;2023-07-20T09:33:47;21.10;99.90
52471;DHT22;38382;53.160;7.026;2023-07-20T09:36:13;21.60;99.90
52471;DHT22;38382;53.160;7.026;2023-07-20T09:38:42;22.10;99.90
52471;DHT22;38382;53.160;7.026;2023-07-20T09:41:14;22.40;99.90
52471;DHT22;38382;53.160;7.026;2023-07-20T09:43:41;22.40;99.90
52471;DHT22;38382;53.160;7.026;2023-07-20T09:46:07;22.10;99.90
52471;DHT22;38382;53.160;7.026;2023-07-20T09:48:33;21.70;99.60
52471;DHT22;38382;53.160;7.026;2023-07-20T09:50:59;21.70;99.90
52471;DHT22;38382;53.160;7.026;2023-07-20T09:53:26;22.10;99.90
52471;DHT22;38382;53.160;7.026;2023-07-20T09:55:53;22.40;99.90
52471;DHT22;38382;53.160;7.026;2023-07-20T09:58:19;22.80;99.90
52471;DHT22;38382;53.160;7.026;2023-07-20T10:00:46;22.90;99.90
52471;DHT22;38382;53.160;7.026;2023-07-20T10:03:21;22.70;99.50
52471;DHT22;38382;53.160;7.026;2023-07-20T10:05:59;22.90;98.30
52471;DHT22;38382;53.160;7.026;2023-07-20T10:08:26;23.20;95.60
52471;DHT22;38382;53.160;7.026;2023-07-20T10:10:53;23.60;99.60
52471;DHT22;38382;53.160;7.026;2023-07-20T10:13:27;23.40;96.00
52471;DHT22;38382;53.160;7.026;2023-07-20T10:16:02;22.80;95.30
52471;DHT22;38382;53.160;7.026;2023-07-20T10:18:43;22.70;96.50
52471;DHT22;38382;53.160;7.026;2023-07-20T10:21:15;23.10;97.40
52471;DHT22;38382;53.160;7.026;2023-07-20T10:23:42;23.50;96.50
52471;DHT22;38382;53.160;7.026;2023-07-20T10:26:09;23.90;95.20
52471;DHT22;38382;53.160;7.026;2023-07-20T10:28:36;24.10;94.40
52471;DHT22;38382;53.160;7.026;2023-07-20T10:31:03;23.90;92.80
52471;DHT22;38382;53.160;7.026;2023-07-20T10:33:29;23.50;93.10
52471;DHT22;38382;53.160;7.026;2023-07-20T10:35:57;23.30;90.90
52471;DHT22;38382;53.160;7.026;2023-07-20T10:38:55;23.70;95.50
52471;DHT22;38382;53.160;7.026;2023-07-20T10:41:39;24.20;94.00
52471;DHT22;38382;53.160;7.026;2023-07-20T10:44:09;24.10;92.80
52471;DHT22;38382;53.160;7.026;2023-07-20T10:46:42;23.80;94.30
52471;DHT22;38382;53.160;7.026;2023-07-20T10:49:13;23.90;93.40
52471;DHT22;38382;53.160;7.026;2023-07-20T10:51:41;24.30;92.80
52471;DHT22;38382;53.160;7.026;2023-07-20T10:56:42;25.00;92.60
52471;DHT22;38382;53.160;7.026;2023-07-20T10:59:20;25.00;90.30
52471;DHT22;38382;53.160;7.026;2023-07-20T11:02:02;25.20;91.40
52471;DHT22;38382;53.160;7.026;2023-07-20T11:04:44;24.70;92.00
52471;DHT22;38382;53.160;7.026;2023-07-20T11:07:11;24.30;91.90
52471;DHT22;38382;53.160;7.026;2023-07-20T11:09:40;24.00;92.10
52471;DHT22;38382;53.160;7.026;2023-07-20T11:12:18;24.00;93.10
52471;DHT22;38382;53.160;7.026;2023-07-20T11:14:54;23.90;92.30
52471;DHT22;38382;53.160;7.026;2023-07-20T11:17:32;23.80;92.50
52471;DHT22;38382;53.160;7.026;2023-07-20T11:20:01;23.50;91.10
52471;DHT22;38382;53.160;7.026;2023-07-20T11:22:28;23.10;91.70
52471;DHT22;38382;53.160;7.026;2023-07-20T11:24:56;23.40;93.50
52471;DHT22;38382;53.160;7.026;2023-07-20T11:27:22;24.00;92.60
52471;DHT22;38382;53.160;7.026;2023-07-20T11:29:48;24.50;92.80
52471;DHT22;38382;53.160;7.026;2023-07-20T11:32:22;25.00;90.80
52471;DHT22;38382;53.160;7.026;2023-07-20T11:34:48;25.50;89.20
52471;DHT22;38382;53.160;7.026;2023-07-20T11:37:14;25.50;88.10
52471;DHT22;38382;53.160;7.026;2023-07-20T11:39:44;25.20;86.70
52471;DHT22;38382;53.160;7.026;2023-07-20T11:42:11;24.90;86.80
52471;DHT22;38382;53.160;7.026;2023-07-20T11:44:40;25.00;87.70
52471;DHT22;38382;53.160;7.026;2023-07-20T11:47:13;25.40;89.70
52471;DHT22;38382;53.160;7.026;2023-07-20T11:49:41;25.40;88.60
52471;DHT22;38382;53.160;7.026;2023-07-20T11:52:09;25.60;88.70
52471;DHT22;38382;53.160;7.026;2023-07-20T11:54:43;25.70;87.10
52471;DHT22;38382;53.160;7.026;2023-07-20T11:57:20;26.00;88.30
52471;DHT22;38382;53.160;7.026;2023-07-20T12:02:25;26.50;87.20
52471;DHT22;38382;53.160;7.026;2023-07-20T12:04:52;26.60;84.00
52471;DHT22;38382;53.160;7.026;2023-07-20T12:07:19;26.60;82.30
52471;DHT22;38382;53.160;7.026;2023-07-20T12:10:02;27.00;83.20
52471;DHT22;38382;53.160;7.026;2023-07-20T12:12:28;27.00;79.30
52471;DHT22;38382;53.160;7.026;2023-07-20T12:15:32;26.40;79.10
52471;DHT22;38382;53.160;7.026;2023-07-20T12:18:01;25.90;80.10
52471;DHT22;38382;53.160;7.026;2023-07-20T12:20:37;25.70;81.30
52471;DHT22;38382;53.160;7.026;2023-07-20T12:23:04;25.40;82.20
52471;DHT22;38382;53.160;7.026;2023-07-20T12:28:14;25.20;83.10
52471;DHT22;38382;53.160;7.026;2023-07-20T12:30:41;24.70;80.50
52471;DHT22;38382;53.160;7.026;2023-07-20T12:33:07;24.50;84.00
52471;DHT22;38382;53.160;7.026;2023-07-20T12:35:33;24.20;85.50
52471;DHT22;38382;53.160;7.026;2023-07-20T12:38:00;24.10;85.10
52471;DHT22;38382;53.160;7.026;2023-07-20T12:40:26;24.10;86.30
52471;DHT22;38382;53.160;7.026;2023-07-20T12:42:52;24.60;84.40
52471;DHT22;38382;53.160;7.026;2023-07-20T12:45:18;25.20;86.90
52471;DHT22;38382;53.160;7.026;2023-07-20T12:47:44;25.40;84.60
52471;DHT22;38382;53.160;7.026;2023-07-20T12:50:11;25.60;82.70
52471;DHT22;38382;53.160;7.026;2023-07-20T12:52:40;25.40;81.30
52471;DHT22;38382;53.160;7.026;2023-07-20T12:55:07;25.30;81.60
52471;DHT22;38382;53.160;7.026;2023-07-20T12:57:36;25.70;82.50
52471;DHT22;38382;53.160;7.026;2023-07-20T13:00:08;25.80;80.40
52471;DHT22;38382;53.160;7.026;2023-07-20T13:02:38;25.60;81.80
52471;DHT22;38382;53.160;7.026;2023-07-20T13:05:04;25.20;80.80
52471;DHT22;38382;53.160;7.026;2023-07-20T13:07:37;24.80;79.60
52471;DHT22;38382;53.160;7.026;2023-07-20T13:10:05;24.10;81.40
52471;DHT22;38382;53.160;7.026;2023-07-20T13:12:44;23.90;82.20
52471;DHT22;38382;53.160;7.026;2023-07-20T13:23:46;22.00;84.20
52471;DHT22;38382;53.160;7.026;2023-07-20T13:27:13;22.60;88.20
52471;DHT22;38382;53.160;7.026;2023-07-20T13:30:19;22.40;89.70
52471;DHT22;38382;53.160;7.026;2023-07-20T13:32:47;22.50;88.50
52471;DHT22;38382;53.160;7.026;2023-07-20T13:35:12;22.50;90.10
52471;DHT22;38382;53.160;7.026;2023-07-20T13:37:38;22.50;90.70
52471;DHT22;38382;53.160;7.026;2023-07-20T13:40:05;22.90;91.90
52471;DHT22;38382;53.160;7.026;2023-07-20T13:42:32;23.20;89.70
52471;DHT22;38382;53.160;7.026;2023-07-20T13:44:58;23.80;90.20
52471;DHT22;38382;53.160;7.026;2023-07-20T13:47:24;24.40;85.50
52471;DHT22;38382;53.160;7.026;2023-07-20T13:49:52;24.40;85.60
52471;DHT22;38382;53.160;7.026;2023-07-20T13:52:18;24.10;84.00
52471;DHT22;38382;53.160;7.026;2023-07-20T13:54:44;23.70;85.50
52471;DHT22;38382;53.160;7.026;2023-07-20T13:57:09;23.50;89.40
52471;DHT22;38382;53.160;7.026;2023-07-20T13:59:35;23.50;86.60
52471;DHT22;38382;53.160;7.026;2023-07-20T14:02:01;24.10;90.60
52471;DHT22;38382;53.160;7.026;2023-07-20T14:04:30;24.40;90.00
52471;DHT22;38382;53.160;7.026;2023-07-20T14:06:56;24.40;89.40
52471;DHT22;38382;53.160;7.026;2023-07-20T14:09:22;24.40;91.10
52471;DHT22;38382;53.160;7.026;2023-07-20T14:11:48;24.40;90.60
52471;DHT22;38382;53.160;7.026;2023-07-20T14:14:14;24.30;90.20
52471;DHT22;38382;53.160;7.026;2023-07-20T14:16:39;24.20;91.00
52471;DHT22;38382;53.160;7.026;2023-07-20T14:19:05;24.10;90.20
52471;DHT22;38382;53.160;7.026;2023-07-20T14:21:49;24.50;90.90
52471;DHT22;38382;53.160;7.026;2023-07-20T14:28:53;25.60;88.60
52471;DHT22;38382;53.160;7.026;2023-07-20T14:31:34;26.60;89.80
52471;DHT22;38382;53.160;7.026;2023-07-20T14:34:17;27.40;84.10
52471;DHT22;38382;53.160;7.026;2023-07-20T14:36:44;27.50;82.40
52471;DHT22;38382;53.160;7.026;2023-07-20T14:39:10;27.80;81.00
52471;DHT22;38382;53.160;7.026;2023-07-20T14:41:39;27.50;83.00
52471;DHT22;38382;53.160;7.026;2023-07-20T14:44:04;27.20;82.00
52471;DHT22;38382;53.160;7.026;2023-07-20T14:46:30;26.90;83.40
52471;DHT22;38382;53.160;7.026;2023-07-20T14:48:57;26.60;80.90
52471;DHT22;38382;53.160;7.026;2023-07-20T14:51:23;26.10;80.60
52471;DHT22;38382;53.160;7.026;2023-07-20T14:53:49;25.80;82.80
52471;DHT22;38382;53.160;7.026;2023-07-20T14:56:15;25.60;82.40
52471;DHT22;38382;53.160;7.026;2023-07-20T14:58:40;25.20;83.70
52471;DHT22;38382;53.160;7.026;2023-07-20T15:01:06;25.10;83.60
52471;DHT22;38382;53.160;7.026;2023-07-20T15:03:32;25.00;85.40
52471;DHT22;38382;53.160;7.026;2023-07-20T15:05:58;25.10;84.90
52471;DHT22;38382;53.160;7.026;2023-07-20T15:08:24;25.80;85.70
52471;DHT22;38382;53.160;7.026;2023-07-20T15:10:49;26.20;86.00
52471;DHT22;38382;53.160;7.026;2023-07-20T15:13:15;27.20;84.20
52471;DHT22;38382;53.160;7.026;2023-07-20T15:15:41;27.30;82.30
52471;DHT22;38382;53.160;7.026;2023-07-20T15:18:08;27.20;79.90
52471;DHT22;38382;53.160;7.026;2023-07-20T15:20:34;27.00;80.60
52471;DHT22;38382;53.160;7.026;2023-07-20T15:23:00;27.40;82.70
52471;DHT22;38382;53.160;7.026;2023-07-20T15:25:26;27.90;80.00
52471;DHT22;38382;53.160;7.026;2023-07-20T15:27:51;27.90;78.80
52471;DHT22;38382;53.160;7.026;2023-07-20T15:30:18;27.70;80.20
52471;DHT22;38382;53.160;7.026;2023-07-20T15:32:44;27.50;74.50
52471;DHT22;38382;53.160;7.026;2023-07-20T15:35:10;27.20;76.40
52471;DHT22;38382;53.160;7.026;2023-07-20T15:37:36;27.70;75.70
52471;DHT22;38382;53.160;7.026;2023-07-20T15:40:02;27.50;74.80
52471;DHT22;38382;53.160;7.026;2023-07-20T15:42:32;26.90;73.70
52471;DHT22;38382;53.160;7.026;2023-07-20T15:44:58;26.50;74.60
52471;DHT22;38382;53.160;7.026;2023-07-20T15:47:23;26.30;77.40
52471;DHT22;38382;53.160;7.026;2023-07-20T15:49:49;25.80;75.20
52471;DHT22;38382;53.160;7.026;2023-07-20T15:52:15;25.30;77.30
52471;DHT22;38382;53.160;7.026;2023-07-20T15:54:42;25.10;78.90
52471;DHT22;38382;53.160;7.026;2023-07-20T15:57:08;24.80;81.40
52471;DHT22;38382;53.160;7.026;2023-07-20T15:59:34;24.50;82.80
52471;DHT22;38382;53.160;7.026;2023-07-20T16:02:01;24.30;84.30
52471;DHT22;38382;53.160;7.026;2023-07-20T16:04:27;24.00;84.30
52471;DHT22;38382;53.160;7.026;2023-07-20T16:06:53;23.80;83.40